OSDZ/DEZ METAR and TAF weather

Enter ICAO airport designator
Station Type Date Time Source
OSDZ METAR 2013/04/08 10:00 UTC NOAA

OSDZ 081000Z 20014KT CAVOK 38/M01 Q1008


Station Type Date Time Source
OSDZ Decoded METAR 2013/04/08 10:00 UTC NOAA

Deir Ezzor, Syria (OSDZ) 35-19N 040-09E 212M
Apr 08, 2013 - 06:00 AM EDT / 2013.04.08 1000 UTC
Wind: from the SSW (200 degrees) at 16 MPH (14 KT):0
Visibility: greater than 7 mile(s):0
Temperature: 100 F (38 C)
Dew Point: 30 F (-1 C)
Relative Humidity: 8%
Pressure (altimeter): 29.77 in. Hg (1008 hPa)
ob: OSDZ 081000Z 20014KT CAVOK 38/M01 Q1008
cycle: 10

Station Type Date Time Source
OSDZ TAF 2011/06/14 12:45 UTC NOAA

OSDZ 1412/1518 25010KT 9999 SCT030 SCT100 PROB30
TEMPO 1415/1418 8000 RA SCT025 SCT090
TEMPO 1500/1606 VRB03KT


Example: see airport list